createdAt,value
2019-02-14T00:00:40.237Z,36.00
2019-02-14T00:03:10.761Z,38.20
2019-02-14T00:05:41.253Z,37.53
2019-02-14T00:08:11.850Z,42.27
2019-02-14T00:10:42.399Z,36.48
2019-02-14T00:13:12.896Z,43.95
2019-02-14T00:15:43.407Z,32.23
2019-02-14T00:18:13.902Z,40.00
2019-02-14T00:20:44.389Z,33.50
2019-02-14T00:23:15.062Z,35.67
2019-02-14T00:25:45.687Z,38.33
2019-02-14T00:28:16.168Z,37.70
2019-02-14T00:30:46.701Z,36.73
2019-02-14T00:33:17.202Z,39.93
2019-02-14T00:35:47.801Z,40.95
2019-02-14T00:38:18.356Z,32.40
2019-02-14T00:40:48.854Z,44.90
2019-02-14T00:43:19.183Z,38.33
2019-02-14T00:45:49.710Z,41.23
2019-02-14T00:48:20.248Z,44.67
2019-02-14T00:50:50.671Z,37.50
2019-02-14T00:53:21.209Z,44.30
2019-02-14T00:55:51.689Z,37.80
2019-02-14T00:58:22.208Z,38.80
2019-02-14T01:00:52.775Z,41.23
2019-02-14T01:03:23.262Z,36.83
2019-02-14T01:05:53.730Z,34.63
2019-02-14T01:08:24.248Z,45.30
2019-02-14T01:10:54.837Z,41.60
2019-02-14T01:13:25.311Z,43.63
2019-02-14T01:15:55.957Z,42.62
2019-02-14T01:18:26.419Z,37.35
2019-02-14T01:20:56.984Z,37.80
2019-02-14T01:23:27.504Z,41.73
2019-02-14T01:25:57.987Z,45.65
2019-02-14T01:28:28.511Z,42.83
2019-02-14T01:30:59.047Z,38.28
2019-02-14T01:33:29.501Z,42.43
2019-02-14T01:36:00.136Z,42.27
2019-02-14T01:38:30.640Z,45.33
2019-02-14T01:41:01.213Z,45.05
2019-02-14T01:43:32.091Z,49.13
2019-02-14T01:46:02.600Z,49.15
2019-02-14T01:48:33.072Z,47.78
2019-02-14T01:51:03.572Z,43.10
2019-02-14T01:53:34.184Z,44.65
2019-02-14T01:56:04.717Z,41.58
2019-02-14T01:58:35.224Z,44.55
2019-02-14T02:01:05.749Z,46.08
2019-02-14T02:03:36.313Z,44.70
2019-02-14T02:06:06.882Z,45.15
2019-02-14T02:08:37.459Z,47.73
2019-02-14T02:11:07.959Z,48.95
2019-02-14T02:13:38.484Z,50.97
2019-02-14T02:16:08.969Z,45.73
2019-02-14T02:18:40.172Z,45.28
2019-02-14T02:21:10.677Z,48.00
2019-02-14T02:23:41.229Z,49.48
2019-02-14T02:26:11.842Z,49.47
2019-02-14T02:28:42.361Z,47.48
2019-02-14T02:31:12.945Z,50.33
2019-02-14T02:33:43.389Z,47.17
2019-02-14T02:36:13.955Z,48.80
2019-02-14T02:38:44.494Z,52.48
2019-02-14T02:41:15.062Z,48.63
2019-02-14T02:43:45.538Z,48.98
2019-02-14T02:46:16.021Z,46.85
2019-02-14T02:48:46.495Z,45.63
2019-02-14T02:51:16.983Z,51.75
2019-02-14T02:53:47.571Z,53.78
2019-02-14T02:56:18.051Z,51.85
2019-02-14T02:58:48.599Z,53.70
2019-02-14T03:01:19.119Z,55.90
2019-02-14T03:03:49.605Z,48.80
2019-02-14T03:06:20.220Z,53.17
2019-02-14T03:08:50.676Z,58.50
2019-02-14T03:11:21.270Z,55.88
2019-02-14T03:13:51.753Z,57.73
2019-02-14T03:16:22.289Z,56.02
2019-02-14T03:18:52.688Z,52.53
2019-02-14T03:21:23.161Z,51.25
2019-02-14T03:23:53.678Z,55.38
2019-02-14T03:26:24.138Z,56.00
2019-02-14T03:28:54.640Z,49.10
2019-02-14T03:31:25.142Z,57.03
2019-02-14T03:33:55.630Z,51.73
2019-02-14T03:36:45.237Z,54.67
2019-02-14T03:39:15.748Z,51.00
2019-02-14T03:41:46.230Z,51.90
2019-02-14T03:44:16.742Z,50.95
2019-02-14T03:46:47.249Z,48.38
2019-02-14T03:49:17.733Z,51.70
2019-02-14T03:51:48.223Z,51.18
2019-02-14T03:54:19.025Z,52.67
2019-02-14T03:56:50.836Z,49.10
2019-02-14T03:59:21.397Z,49.85
2019-02-14T04:01:51.981Z,55.48
2019-02-14T04:04:22.482Z,54.95
2019-02-14T04:06:52.962Z,53.85
2019-02-14T04:09:23.454Z,52.40
2019-02-14T04:11:53.982Z,53.40
2019-02-14T04:14:24.553Z,53.52
2019-02-14T04:16:55.051Z,64.23
2019-02-14T04:19:25.564Z,46.83
2019-02-14T04:21:56.027Z,58.55
2019-02-14T04:24:26.495Z,50.52
2019-02-14T04:26:57.002Z,49.75
2019-02-14T04:29:27.541Z,54.08
2019-02-14T04:31:58.069Z,56.58
2019-02-14T04:34:28.562Z,57.63
2019-02-14T04:36:59.161Z,59.40
2019-02-14T04:39:29.591Z,59.03
2019-02-14T04:42:00.070Z,54.00
2019-02-14T04:44:30.611Z,60.73
2019-02-14T04:47:01.139Z,55.38
2019-02-14T04:49:31.562Z,54.77
2019-02-14T04:52:02.144Z,61.98
2019-02-14T04:54:32.644Z,57.53
2019-02-14T04:57:03.145Z,53.60
2019-02-14T04:59:33.665Z,52.60
2019-02-14T05:02:04.138Z,51.10
2019-02-14T05:04:34.616Z,51.00
2019-02-14T05:07:05.179Z,48.13
2019-02-14T05:09:35.738Z,54.55
2019-02-14T05:12:06.199Z,52.67
2019-02-14T05:14:36.691Z,51.88
2019-02-14T05:17:07.154Z,51.98
2019-02-14T05:19:37.592Z,49.83
2019-02-14T05:22:08.190Z,48.25
2019-02-14T05:24:38.636Z,53.57
2019-02-14T05:27:09.267Z,56.08
2019-02-14T05:29:39.699Z,53.37
2019-02-14T05:32:10.235Z,57.13
2019-02-14T05:34:40.843Z,56.63
2019-02-14T05:37:11.381Z,48.80
2019-02-14T05:39:41.912Z,61.55
2019-02-14T05:42:12.471Z,55.52
2019-02-14T05:44:42.960Z,62.40
2019-02-14T05:47:13.432Z,55.85
2019-02-14T05:49:43.864Z,51.20
2019-02-14T05:52:14.328Z,51.77
2019-02-14T05:54:44.881Z,54.03
2019-02-14T05:57:15.386Z,59.23
2019-02-14T05:59:45.915Z,50.60
2019-02-14T06:02:18.234Z,51.25
2019-02-14T06:04:48.738Z,57.25
2019-02-14T06:07:19.278Z,51.35
2019-02-14T06:09:49.744Z,56.33
2019-02-14T06:12:20.216Z,52.35
2019-02-14T06:14:50.723Z,54.90
2019-02-14T06:17:21.094Z,52.73
2019-02-14T06:19:51.647Z,56.25
2019-02-14T06:22:22.182Z,54.53
2019-02-14T06:24:52.657Z,57.78
2019-02-14T06:27:23.122Z,53.63
2019-02-14T06:29:53.651Z,56.68
2019-02-14T06:32:24.118Z,60.28
2019-02-14T06:34:54.610Z,59.00
2019-02-14T06:37:25.214Z,48.05
2019-02-14T06:39:55.680Z,51.63
2019-02-14T06:42:26.163Z,60.73
2019-02-14T06:44:56.758Z,54.90
2019-02-14T06:47:27.311Z,53.23
2019-02-14T06:49:57.770Z,58.00
2019-02-14T06:52:28.282Z,56.95
2019-02-14T06:54:58.820Z,58.83
2019-02-14T06:57:29.284Z,54.65
2019-02-14T06:59:59.790Z,53.78
2019-02-14T07:02:30.294Z,59.20
2019-02-14T07:05:00.836Z,61.70
2019-02-14T07:07:31.355Z,55.33
2019-02-14T07:10:01.868Z,59.23
2019-02-14T07:12:32.366Z,57.80
2019-02-14T07:15:02.898Z,54.03
2019-02-14T07:17:33.374Z,55.90
2019-02-14T07:20:03.975Z,60.75
2019-02-14T07:22:34.482Z,49.67
2019-02-14T07:25:05.125Z,53.58
2019-02-14T07:27:35.629Z,56.63
2019-02-14T07:30:09.950Z,52.95
2019-02-14T07:32:40.392Z,55.25
2019-02-14T07:35:11.477Z,55.27
2019-02-14T07:37:41.981Z,52.03
2019-02-14T07:40:14.198Z,48.73
2019-02-14T07:42:44.798Z,50.48
2019-02-14T07:45:15.873Z,55.23
2019-02-14T07:47:46.374Z,52.80
2019-02-14T07:50:16.864Z,59.25
2019-02-14T07:52:47.392Z,52.95
2019-02-14T07:55:18.036Z,58.05
2019-02-14T07:57:48.508Z,54.30
2019-02-14T08:00:19.079Z,48.65
2019-02-14T08:02:49.591Z,54.43
2019-02-14T08:05:20.101Z,55.48
2019-02-14T08:07:50.608Z,52.13
2019-02-14T08:10:21.137Z,59.83
2019-02-14T08:12:51.629Z,56.28
2019-02-14T08:15:22.128Z,54.88
2019-02-14T08:17:52.627Z,49.85
2019-02-14T08:20:23.212Z,52.20
2019-02-14T08:22:53.706Z,55.85
2019-02-14T08:25:24.214Z,53.30
2019-02-14T08:27:54.735Z,55.50
2019-02-14T08:30:25.243Z,58.00
2019-02-14T08:32:55.751Z,51.68
2019-02-14T08:35:26.316Z,55.28
2019-02-14T08:37:56.833Z,52.35
2019-02-14T08:40:27.346Z,55.80
2019-02-14T08:42:58.698Z,55.55
2019-02-14T08:45:29.909Z,50.38
2019-02-14T08:48:00.396Z,54.67
2019-02-14T08:50:31.051Z,53.77
2019-02-14T08:53:01.610Z,47.08
2019-02-14T08:55:32.180Z,52.43
2019-02-14T08:58:02.667Z,49.80
2019-02-14T09:00:33.150Z,52.00
2019-02-14T09:03:03.621Z,51.55
2019-02-14T09:05:34.119Z,52.65
2019-02-14T09:08:04.600Z,53.15
2019-02-14T09:10:35.099Z,50.30
2019-02-14T09:13:05.601Z,52.17
2019-02-14T09:15:36.122Z,50.85
2019-02-14T09:18:07.916Z,46.23
2019-02-14T09:20:38.582Z,51.20
2019-02-14T09:23:09.068Z,52.50
2019-02-14T09:25:39.606Z,49.05
2019-02-14T09:28:10.128Z,49.70
2019-02-14T09:30:40.671Z,49.27
2019-02-14T09:33:11.176Z,55.92
2019-02-14T09:35:41.658Z,56.23
2019-02-14T09:38:12.155Z,52.00
2019-02-14T09:40:42.608Z,49.20
2019-02-14T09:43:13.101Z,48.65
2019-02-14T09:45:43.644Z,56.58
2019-02-14T09:48:17.321Z,47.78
2019-02-14T09:50:47.896Z,48.80
2019-02-14T09:53:18.401Z,48.73
2019-02-14T09:55:48.864Z,49.80
2019-02-14T09:58:19.406Z,51.48
2019-02-14T10:00:49.922Z,48.40
2019-02-14T10:03:20.381Z,50.50
2019-02-14T10:05:50.940Z,51.88
2019-02-14T10:08:21.449Z,50.33
2019-02-14T10:10:51.912Z,48.43
2019-02-14T10:13:22.404Z,71.33
2019-02-14T10:15:52.910Z,50.38
2019-02-14T10:18:23.404Z,53.58
2019-02-14T10:20:53.939Z,50.73
2019-02-14T10:23:24.417Z,44.20
2019-02-14T10:25:54.912Z,49.85
2019-02-14T10:28:25.397Z,48.68
2019-02-14T10:30:55.886Z,52.27
2019-02-14T10:33:26.359Z,43.42
2019-02-14T10:35:56.889Z,49.70
2019-02-14T10:38:27.418Z,51.50
2019-02-14T10:40:57.885Z,45.33
2019-02-14T10:43:28.579Z,50.90
2019-02-14T10:45:59.128Z,45.40
2019-02-14T10:48:29.665Z,43.83
2019-02-14T10:51:00.257Z,41.95
2019-02-14T10:53:30.818Z,45.85
2019-02-14T10:56:01.265Z,42.65
2019-02-14T10:58:31.802Z,48.48
2019-02-14T11:01:02.293Z,46.42
2019-02-14T11:03:32.791Z,49.17
2019-02-14T11:06:03.314Z,47.27
2019-02-14T11:08:33.807Z,47.75
2019-02-14T11:11:04.290Z,44.10
2019-02-14T11:13:34.828Z,43.75
2019-02-14T11:16:06.766Z,44.23
2019-02-14T11:18:43.932Z,45.03
2019-02-14T11:21:09.634Z,48.10
2019-02-14T11:23:40.151Z,43.10
2019-02-14T11:26:10.614Z,52.27
2019-02-14T11:28:41.115Z,47.33
2019-02-14T11:31:11.602Z,46.63
2019-02-14T11:33:42.215Z,47.30
2019-02-14T11:36:12.703Z,47.75
2019-02-14T11:38:43.230Z,42.33
2019-02-14T11:41:13.801Z,45.85
2019-02-14T11:43:44.385Z,36.05
2019-02-14T11:46:14.887Z,38.02
2019-02-14T11:48:45.368Z,36.10
2019-02-14T11:51:15.992Z,42.35
2019-02-14T11:53:46.542Z,36.03
2019-02-14T11:56:16.979Z,35.48
2019-02-14T11:58:47.493Z,37.10
2019-02-14T12:01:17.971Z,34.98
2019-02-14T12:03:48.447Z,41.88
2019-02-14T12:06:18.936Z,34.67
2019-02-14T12:08:59.548Z,32.63
2019-02-14T12:11:21.720Z,36.75
2019-02-14T12:13:52.216Z,33.58
2019-02-14T12:16:22.707Z,36.30
2019-02-14T12:18:53.157Z,37.50
2019-02-14T12:21:23.559Z,33.65
2019-02-14T12:23:54.191Z,33.48
2019-02-14T12:26:24.688Z,41.80
2019-02-14T12:28:55.219Z,38.73
2019-02-14T12:31:25.690Z,30.50
2019-02-14T12:33:56.277Z,29.27
2019-02-14T12:36:26.748Z,37.20
2019-02-14T12:38:57.201Z,27.90
2019-02-14T12:41:27.690Z,29.85
2019-02-14T12:43:58.297Z,31.23
2019-02-14T12:46:28.846Z,24.15
2019-02-14T12:48:59.404Z,26.47
2019-02-14T12:51:29.996Z,27.35
2019-02-14T12:54:00.526Z,26.00
2019-02-14T12:56:31.017Z,29.80
2019-02-14T12:59:01.508Z,26.33
2019-02-14T13:01:32.018Z,25.82
2019-02-14T13:04:02.440Z,24.65
2019-02-14T13:06:32.872Z,28.95
2019-02-14T13:09:04.739Z,27.55
2019-02-14T13:11:35.132Z,22.00
2019-02-14T13:14:05.631Z,25.40
2019-02-14T13:16:36.300Z,22.65
2019-02-14T13:19:06.689Z,22.32
2019-02-14T13:21:37.191Z,22.80
2019-02-14T13:24:07.632Z,23.02
2019-02-14T13:26:38.094Z,21.57
2019-02-14T13:29:08.652Z,20.85
2019-02-14T13:31:39.109Z,24.53
2019-02-14T13:34:09.609Z,20.20
2019-02-14T13:36:40.127Z,20.65
2019-02-14T13:39:10.738Z,22.48
2019-02-14T13:41:41.246Z,21.70
2019-02-14T13:44:11.749Z,16.43
2019-02-14T13:46:42.209Z,20.30
2019-02-14T13:49:12.704Z,20.45
2019-02-14T13:51:43.219Z,16.80
2019-02-14T13:54:13.727Z,17.00
2019-02-14T13:56:44.170Z,20.23
2019-02-14T13:59:14.653Z,19.15
2019-02-14T14:01:45.186Z,13.35
2019-02-14T14:04:15.685Z,18.43
2019-02-14T14:06:46.213Z,20.02
2019-02-14T14:09:16.794Z,16.40
2019-02-14T14:11:47.221Z,15.15
2019-02-14T14:14:17.657Z,13.55
2019-02-14T14:16:48.086Z,15.30
2019-02-14T14:19:18.566Z,14.47
2019-02-14T14:21:49.159Z,11.70
2019-02-14T14:24:22.471Z,12.73
2019-02-14T14:26:53.319Z,14.63
2019-02-14T14:29:23.807Z,14.25
2019-02-14T14:31:54.287Z,12.70
2019-02-14T14:34:24.945Z,20.72
2019-02-14T14:36:55.412Z,13.22
2019-02-14T14:39:25.901Z,21.95
2019-02-14T14:41:56.382Z,13.35
2019-02-14T14:44:40.898Z,16.25
2019-02-14T14:47:15.175Z,12.70
2019-02-14T14:49:45.706Z,14.73
2019-02-14T14:52:16.430Z,14.10
2019-02-14T14:54:47.037Z,12.80
2019-02-14T14:57:17.536Z,13.22
2019-02-14T14:59:48.029Z,12.68
2019-02-14T15:02:18.681Z,12.27
2019-02-14T15:04:49.446Z,15.40
2019-02-14T15:07:19.949Z,17.57
2019-02-14T15:09:57.283Z,14.47
2019-02-14T15:12:30.611Z,13.30
2019-02-14T15:15:01.378Z,14.73
2019-02-14T15:17:33.206Z,13.85
2019-02-14T15:20:03.970Z,15.65
2019-02-14T15:22:37.202Z,13.93
2019-02-14T15:25:07.882Z,15.38
2019-02-14T15:27:40.052Z,25.70
2019-02-14T15:30:10.860Z,13.85
2019-02-14T15:32:41.501Z,16.30
2019-02-14T15:35:12.252Z,17.00
2019-02-14T15:37:44.571Z,14.45
2019-02-14T15:40:15.377Z,18.30
2019-02-14T15:42:45.821Z,15.10
2019-02-14T15:45:16.564Z,17.50
2019-02-14T15:47:47.020Z,15.85
2019-02-14T15:50:17.752Z,14.40
2019-02-14T15:52:48.619Z,15.38
2019-02-14T15:55:19.983Z,15.53
2019-02-14T15:57:51.387Z,14.05
2019-02-14T16:00:22.016Z,18.85
2019-02-14T16:02:52.663Z,17.32
2019-02-14T16:05:23.150Z,15.08
2019-02-14T16:08:12.770Z,19.30
2019-02-14T16:10:43.320Z,16.65
2019-02-14T16:13:13.846Z,16.30
2019-02-14T16:15:44.474Z,16.85
2019-02-14T16:18:14.989Z,15.32
2019-02-14T16:20:45.387Z,18.35
2019-02-14T16:23:16.072Z,15.18
2019-02-14T16:25:46.572Z,12.78
2019-02-14T16:28:17.106Z,19.32
2019-02-14T16:30:47.595Z,16.27
2019-02-14T16:33:18.096Z,21.52
2019-02-14T16:35:48.657Z,17.75
2019-02-14T16:38:19.176Z,17.02
2019-02-14T16:40:49.775Z,19.05
2019-02-14T16:43:20.229Z,18.20
2019-02-14T16:45:50.769Z,16.95
2019-02-14T16:48:21.360Z,16.95
2019-02-14T16:50:51.941Z,15.45
2019-02-14T16:53:22.473Z,17.12
2019-02-14T16:56:01.676Z,20.55
2019-02-14T16:58:25.096Z,17.32
2019-02-14T17:00:55.710Z,22.65
2019-02-14T17:03:26.213Z,17.37
2019-02-14T17:05:56.767Z,16.62
2019-02-14T17:08:27.374Z,21.50
2019-02-14T17:10:57.939Z,17.32
2019-02-14T17:13:28.494Z,18.57
2019-02-14T17:15:59.061Z,17.82
2019-02-14T17:18:29.534Z,20.60
2019-02-14T17:21:00.005Z,17.12
2019-02-14T17:23:30.538Z,20.95
2019-02-14T17:26:01.098Z,20.75
2019-02-14T17:28:31.613Z,16.60
2019-02-14T17:31:02.130Z,19.07
2019-02-14T17:33:32.710Z,19.42
2019-02-14T17:36:03.222Z,19.83
2019-02-14T17:38:33.786Z,14.40
2019-02-14T17:41:04.253Z,18.20
2019-02-14T17:43:34.804Z,19.75
2019-02-14T17:46:05.474Z,17.70
2019-02-14T17:48:35.936Z,20.85
2019-02-14T17:51:06.444Z,24.87
2019-02-14T17:53:37.010Z,19.35
2019-02-14T17:56:07.568Z,19.35
2019-02-14T17:58:38.098Z,24.47
2019-02-14T18:01:08.619Z,20.20
2019-02-14T18:03:39.144Z,17.07
2019-02-14T18:06:09.647Z,17.45
2019-02-14T18:08:40.214Z,18.25
2019-02-14T18:11:10.775Z,19.27
2019-02-14T18:13:41.227Z,21.40
2019-02-14T18:16:11.783Z,23.45
2019-02-14T18:18:42.290Z,23.80
2019-02-14T18:21:12.815Z,25.43
2019-02-14T18:23:43.307Z,20.30
2019-02-14T18:26:14.842Z,20.17
2019-02-14T18:28:45.434Z,24.90
2019-02-14T18:31:15.909Z,19.77
2019-02-14T18:33:46.447Z,22.98
2019-02-14T18:36:16.938Z,20.60
2019-02-14T18:38:47.589Z,22.67
2019-02-14T18:41:18.049Z,23.90
2019-02-14T18:43:48.545Z,27.75
2019-02-14T18:46:19.357Z,24.90
2019-02-14T18:48:49.975Z,19.95
2019-02-14T18:51:20.486Z,22.42
2019-02-14T18:53:50.894Z,21.20
2019-02-14T18:56:21.460Z,25.15
2019-02-14T18:58:51.940Z,25.45
2019-02-14T19:01:22.478Z,21.25
2019-02-14T19:03:52.949Z,18.82
2019-02-14T19:06:23.477Z,27.93
2019-02-14T19:08:54.091Z,22.40
2019-02-14T19:11:24.586Z,19.80
2019-02-14T19:13:55.046Z,21.20
2019-02-14T19:16:25.574Z,23.45
2019-02-14T19:18:56.053Z,21.87
2019-02-14T19:21:26.546Z,21.45
2019-02-14T19:23:57.089Z,19.25
2019-02-14T19:26:27.608Z,20.27
2019-02-14T19:28:58.078Z,20.32
2019-02-14T19:31:28.713Z,17.02
2019-02-14T19:33:59.199Z,17.45
2019-02-14T19:36:29.771Z,24.02
2019-02-14T19:39:00.348Z,18.50
2019-02-14T19:41:30.883Z,20.23
2019-02-14T19:44:01.376Z,26.30
2019-02-14T19:46:31.925Z,22.35
2019-02-14T19:49:02.438Z,23.22
2019-02-14T19:51:32.978Z,21.30
2019-02-14T19:54:03.608Z,25.48
2019-02-14T19:56:34.161Z,21.27
2019-02-14T19:59:04.671Z,27.35
2019-02-14T20:01:35.394Z,24.18
2019-02-14T20:04:05.902Z,21.42
2019-02-14T20:06:36.414Z,18.35
2019-02-14T20:09:07.742Z,21.12
2019-02-14T20:11:38.319Z,20.57
2019-02-14T20:14:08.767Z,20.20
2019-02-14T20:16:39.263Z,23.98
2019-02-14T20:19:09.712Z,20.82
2019-02-14T20:21:40.174Z,20.85
2019-02-14T20:24:10.770Z,20.20
2019-02-14T20:26:41.266Z,21.85
2019-02-14T20:29:11.750Z,19.55
2019-02-14T20:31:42.394Z,23.52
2019-02-14T20:34:12.944Z,22.62
2019-02-14T20:36:43.498Z,25.10
2019-02-14T20:39:14.096Z,20.50
2019-02-14T20:41:46.332Z,18.95
2019-02-14T20:44:17.575Z,20.88
2019-02-14T20:46:48.212Z,21.05
2019-02-14T20:49:18.711Z,28.02
2019-02-14T20:51:49.217Z,21.77
2019-02-14T20:54:19.756Z,20.82
2019-02-14T20:56:50.287Z,18.80
2019-02-14T20:59:20.858Z,21.42
2019-02-14T21:01:51.412Z,17.70
2019-02-14T21:04:22.190Z,19.67
2019-02-14T21:06:52.816Z,21.17
2019-02-14T21:09:23.331Z,18.52
2019-02-14T21:11:54.932Z,16.27
2019-02-14T21:14:25.690Z,16.75
2019-02-14T21:16:56.184Z,21.07
2019-02-14T21:19:26.761Z,19.32
2019-02-14T21:21:57.389Z,20.60
2019-02-14T21:24:27.875Z,21.33
2019-02-14T21:26:58.383Z,17.85
2019-02-14T21:29:28.960Z,19.33
2019-02-14T21:32:00.013Z,17.32
2019-02-14T21:34:30.554Z,17.73
2019-02-14T21:37:01.080Z,21.33
2019-02-14T21:39:31.615Z,19.57
2019-02-14T21:42:18.716Z,24.63
2019-02-14T21:44:34.439Z,22.07
2019-02-14T21:47:05.342Z,20.13
2019-02-14T21:49:35.881Z,19.20
2019-02-14T21:52:06.468Z,23.10
2019-02-14T21:54:36.985Z,21.82
2019-02-14T21:57:07.522Z,24.92
2019-02-14T21:59:37.869Z,19.90
2019-02-14T22:02:08.380Z,25.02
2019-02-14T22:04:38.934Z,20.67
2019-02-14T22:07:09.858Z,23.50
2019-02-14T22:09:40.704Z,22.98
2019-02-14T22:12:11.231Z,20.02
2019-02-14T22:14:41.783Z,20.82
2019-02-14T22:17:12.315Z,19.82
2019-02-14T22:19:43.061Z,17.37
2019-02-14T22:22:13.562Z,17.07
2019-02-14T22:24:44.084Z,17.20
2019-02-14T22:27:14.617Z,20.23
2019-02-14T22:29:45.181Z,14.20
2019-02-14T22:32:15.665Z,17.50
2019-02-14T22:34:46.253Z,18.02
2019-02-14T22:37:16.705Z,22.32
2019-02-14T22:39:47.183Z,18.45
2019-02-14T22:42:17.755Z,17.37
2019-02-14T22:44:48.323Z,20.60
2019-02-14T22:47:18.939Z,21.05
2019-02-14T22:49:49.636Z,17.32
2019-02-14T22:52:20.210Z,25.45
2019-02-14T22:54:50.784Z,25.52
2019-02-14T22:57:21.350Z,23.85
2019-02-14T22:59:51.902Z,23.67
2019-02-14T23:02:22.680Z,20.35
2019-02-14T23:04:53.203Z,23.38
2019-02-14T23:07:23.777Z,19.87
2019-02-14T23:09:54.676Z,21.15
2019-02-14T23:12:25.242Z,20.20
2019-02-14T23:14:55.756Z,23.35
2019-02-14T23:17:26.355Z,19.90
2019-02-14T23:19:56.850Z,18.40
2019-02-14T23:22:27.431Z,16.37
2019-02-14T23:24:58.071Z,21.57
2019-02-14T23:27:28.628Z,16.80
2019-02-14T23:29:59.141Z,16.45
2019-02-14T23:32:29.712Z,16.87
2019-02-14T23:35:00.379Z,22.93
2019-02-14T23:37:31.118Z,21.20
2019-02-14T23:40:01.611Z,23.02
2019-02-14T23:42:32.130Z,24.52
2019-02-14T23:45:02.722Z,22.57
2019-02-14T23:47:33.222Z,21.23
2019-02-14T23:50:03.823Z,24.50
2019-02-14T23:52:34.354Z,22.15
2019-02-14T23:55:04.953Z,17.92
2019-02-14T23:57:35.450Z,23.40
